sensor_id;sensor_type;location;lat;lon;timestamp;pressure;altitude;pressure_sealevel;temperature;humidity
59767;BME280;46248;58.364;25.582;2022-12-07T00:02:57;100230.81;;;-3.24;91.01
59767;BME280;46248;58.364;25.582;2022-12-07T00:06:20;100234.22;;;-3.26;90.91
59767;BME280;46248;58.364;25.582;2022-12-07T00:09:42;100226.53;;;-3.31;91.00
59767;BME280;46248;58.364;25.582;2022-12-07T00:13:06;100230.78;;;-3.28;90.88
59767;BME280;46248;58.364;25.582;2022-12-07T00:16:30;100224.81;;;-3.32;90.99
59767;BME280;46248;58.364;25.582;2022-12-07T00:19:53;100227.38;;;-3.29;90.90
59767;BME280;46248;58.364;25.582;2022-12-07T00:23:15;100215.44;;;-3.28;91.06
59767;BME280;46248;58.364;25.582;2022-12-07T00:26:39;100212.00;;;-3.36;91.07
59767;BME280;46248;58.364;25.582;2022-12-07T00:30:01;100219.72;;;-3.29;90.94
59767;BME280;46248;58.364;25.582;2022-12-07T00:33:25;100213.72;;;-3.28;90.85
59767;BME280;46248;58.364;25.582;2022-12-07T00:36:49;100197.50;;;-3.37;91.12
59767;BME280;46248;58.364;25.582;2022-12-07T00:40:12;100216.28;;;-3.31;90.78
59767;BME280;46248;58.364;25.582;2022-12-07T00:43:33;100206.06;;;-3.35;90.85
59767;BME280;46248;58.364;25.582;2022-12-07T00:46:55;100215.44;;;-3.31;90.92
59767;BME280;46248;58.364;25.582;2022-12-07T00:50:18;100216.31;;;-3.32;91.16
59767;BME280;46248;58.364;25.582;2022-12-07T00:53:40;100224.81;;;-3.30;90.92
59767;BME280;46248;58.364;25.582;2022-12-07T00:57:02;100219.72;;;-3.29;90.91
59767;BME280;46248;58.364;25.582;2022-12-07T01:00:24;100208.59;;;-3.31;90.90
59767;BME280;46248;58.364;25.582;2022-12-07T01:03:46;100209.44;;;-3.30;90.88
59767;BME280;46248;58.364;25.582;2022-12-07T01:07:10;100203.47;;;-3.31;91.28
59767;BME280;46248;58.364;25.582;2022-12-07T01:10:32;100203.50;;;-3.29;91.10
59767;BME280;46248;58.364;25.582;2022-12-07T01:13:56;100186.44;;;-3.35;91.20
59767;BME280;46248;58.364;25.582;2022-12-07T01:17:18;100184.72;;;-3.34;91.20
59767;BME280;46248;58.364;25.582;2022-12-07T01:20:40;100183.88;;;-3.32;91.06
59767;BME280;46248;58.364;25.582;2022-12-07T01:24:05;100176.16;;;-3.33;91.35
59767;BME280;46248;58.364;25.582;2022-12-07T01:27:27;100176.19;;;-3.32;91.51
59767;BME280;46248;58.364;25.582;2022-12-07T01:31:00;100176.16;;;-3.36;91.46
59767;BME280;46248;58.364;25.582;2022-12-07T01:34:23;100184.72;;;-3.34;91.78
59767;BME280;46248;58.364;25.582;2022-12-07T01:37:45;100187.28;;;-3.34;91.73
59767;BME280;46248;58.364;25.582;2022-12-07T01:41:09;100185.56;;;-3.38;91.75
59767;BME280;46248;58.364;25.582;2022-12-07T01:44:31;100178.75;;;-3.38;91.87
59767;BME280;46248;58.364;25.582;2022-12-07T01:47:57;100177.91;;;-3.41;91.81
59767;BME280;46248;58.364;25.582;2022-12-07T01:51:19;100171.91;;;-3.40;91.99
59767;BME280;46248;58.364;25.582;2022-12-07T01:54:42;100174.47;;;-3.40;92.06
59767;BME280;46248;58.364;25.582;2022-12-07T01:58:07;100173.63;;;-3.44;91.72
59767;BME280;46248;58.364;25.582;2022-12-07T02:01:29;100169.34;;;-3.45;92.07
59767;BME280;46248;58.364;25.582;2022-12-07T02:04:52;100166.78;;;-3.45;92.10
59767;BME280;46248;58.364;25.582;2022-12-07T02:08:15;100158.28;;;-3.47;92.34
59767;BME280;46248;58.364;25.582;2022-12-07T02:11:38;100159.09;;;-3.45;92.13
59767;BME280;46248;58.364;25.582;2022-12-07T02:15:03;100159.97;;;-3.46;92.09
59767;BME280;46248;58.364;25.582;2022-12-07T02:18:33;100162.53;;;-3.46;92.44
59767;BME280;46248;58.364;25.582;2022-12-07T02:22:05;100155.72;;;-3.47;92.19
59767;BME280;46248;58.364;25.582;2022-12-07T02:25:51;100151.44;;;-3.47;92.26
59767;BME280;46248;58.364;25.582;2022-12-07T02:29:22;100132.66;;;-3.58;92.04
59767;BME280;46248;58.364;25.582;2022-12-07T02:32:50;100148.03;;;-3.50;92.11
59767;BME280;46248;58.364;25.582;2022-12-07T02:36:17;100130.09;;;-3.58;92.25
59767;BME280;46248;58.364;25.582;2022-12-07T02:39:44;100132.66;;;-3.58;91.99
59767;BME280;46248;58.364;25.582;2022-12-07T02:43:10;100113.03;;;-3.66;92.29
59767;BME280;46248;58.364;25.582;2022-12-07T02:46:39;100125.00;;;-3.56;92.44
59767;BME280;46248;58.364;25.582;2022-12-07T02:50:04;100119.88;;;-3.58;92.50
59767;BME280;46248;58.364;25.582;2022-12-07T02:53:34;100119.03;;;-3.55;92.51
59767;BME280;46248;58.364;25.582;2022-12-07T02:57:04;100103.66;;;-3.64;92.53
59767;BME280;46248;58.364;25.582;2022-12-07T03:00:31;100105.34;;;-3.60;92.12
59767;BME280;46248;58.364;25.582;2022-12-07T03:04:06;100110.50;;;-3.56;92.30
59767;BME280;46248;58.364;25.582;2022-12-07T03:07:37;100111.34;;;-3.57;92.14
59767;BME280;46248;58.364;25.582;2022-12-07T03:11:03;100107.91;;;-3.57;92.28
59767;BME280;46248;58.364;25.582;2022-12-07T03:14:30;100102.81;;;-3.59;92.26
59767;BME280;46248;58.364;25.582;2022-12-07T03:17:55;100090.03;;;-3.59;92.28
59767;BME280;46248;58.364;25.582;2022-12-07T03:21:23;100090.00;;;-3.57;92.49
59767;BME280;46248;58.364;25.582;2022-12-07T03:24:51;100077.22;;;-3.68;92.92
59767;BME280;46248;58.364;25.582;2022-12-07T03:28:17;100083.22;;;-3.60;92.63
59767;BME280;46248;58.364;25.582;2022-12-07T03:31:41;100090.03;;;-3.59;92.51
59767;BME280;46248;58.364;25.582;2022-12-07T03:35:09;100071.25;;;-3.61;92.35
59767;BME280;46248;58.364;25.582;2022-12-07T03:38:40;100075.53;;;-3.60;92.53
59767;BME280;46248;58.364;25.582;2022-12-07T03:42:05;100048.25;;;-3.72;92.16
59767;BME280;46248;58.364;25.582;2022-12-07T03:45:33;100051.66;;;-3.71;92.25
59767;BME280;46248;58.364;25.582;2022-12-07T03:49:02;100062.75;;;-3.66;92.14
59767;BME280;46248;58.364;25.582;2022-12-07T03:52:30;100063.59;;;-3.69;92.43
59767;BME280;46248;58.364;25.582;2022-12-07T03:55:56;100061.00;;;-3.67;92.43
59767;BME280;46248;58.364;25.582;2022-12-07T03:59:19;100061.88;;;-3.66;92.55
59767;BME280;46248;58.364;25.582;2022-12-07T04:02:42;100045.66;;;-3.73;92.56
59767;BME280;46248;58.364;25.582;2022-12-07T04:06:04;100049.06;;;-3.70;92.84
59767;BME280;46248;58.364;25.582;2022-12-07T04:09:26;100047.38;;;-3.71;92.84
59767;BME280;46248;58.364;25.582;2022-12-07T04:12:50;100038.00;;;-3.72;92.62
59767;BME280;46248;58.364;25.582;2022-12-07T04:16:11;100032.03;;;-3.75;92.53
59767;BME280;46248;58.364;25.582;2022-12-07T04:19:34;100038.00;;;-3.72;92.63
59767;BME280;46248;58.364;25.582;2022-12-07T04:22:56;100032.06;;;-3.72;92.60
59767;BME280;46248;58.364;25.582;2022-12-07T04:26:19;100035.44;;;-3.72;92.78
59767;BME280;46248;58.364;25.582;2022-12-07T04:29:41;100021.81;;;-3.72;92.60
59767;BME280;46248;58.364;25.582;2022-12-07T04:33:03;100019.25;;;-3.77;92.50
59767;BME280;46248;58.364;25.582;2022-12-07T04:36:25;100014.13;;;-3.75;92.84
59767;BME280;46248;58.364;25.582;2022-12-07T04:39:47;100014.97;;;-3.73;92.42
59767;BME280;46248;58.364;25.582;2022-12-07T04:43:09;100012.41;;;-3.73;92.59
59767;BME280;46248;58.364;25.582;2022-12-07T04:46:32;100013.25;;;-3.73;92.81
59767;BME280;46248;58.364;25.582;2022-12-07T04:49:54;100014.97;;;-3.73;92.62
59767;BME280;46248;58.364;25.582;2022-12-07T04:53:16;100012.41;;;-3.73;92.31
59767;BME280;46248;58.364;25.582;2022-12-07T04:56:39;100021.78;;;-3.71;92.52
59767;BME280;46248;58.364;25.582;2022-12-07T05:00:04;99997.94;;;-3.74;92.56
59767;BME280;46248;58.364;25.582;2022-12-07T05:03:27;100016.69;;;-3.69;92.34
59767;BME280;46248;58.364;25.582;2022-12-07T05:06:49;99994.50;;;-3.69;92.65
59767;BME280;46248;58.364;25.582;2022-12-07T05:10:11;100000.47;;;-3.70;92.71
59767;BME280;46248;58.364;25.582;2022-12-07T05:13:33;99983.44;;;-3.72;92.57
59767;BME280;46248;58.364;25.582;2022-12-07T05:16:55;99988.53;;;-3.67;92.44
59767;BME280;46248;58.364;25.582;2022-12-07T05:20:19;99981.72;;;-3.76;92.63
59767;BME280;46248;58.364;25.582;2022-12-07T05:23:41;99999.63;;;-3.72;92.74
59767;BME280;46248;58.364;25.582;2022-12-07T05:27:03;99983.44;;;-3.74;92.79
59767;BME280;46248;58.364;25.582;2022-12-07T05:30:25;99978.28;;;-3.75;92.97
59767;BME280;46248;58.364;25.582;2022-12-07T05:33:47;99986.00;;;-3.72;92.74
59767;BME280;46248;58.364;25.582;2022-12-07T05:37:10;99985.13;;;-3.71;93.19
59767;BME280;46248;58.364;25.582;2022-12-07T05:40:32;99990.25;;;-3.71;92.78
59767;BME280;46248;58.364;25.582;2022-12-07T05:43:55;99985.97;;;-3.74;92.85
59767;BME280;46248;58.364;25.582;2022-12-07T05:47:17;99986.84;;;-3.75;92.39
59767;BME280;46248;58.364;25.582;2022-12-07T05:50:38;99988.53;;;-3.71;92.68
59767;BME280;46248;58.364;25.582;2022-12-07T05:54:02;99980.88;;;-3.71;92.62
59767;BME280;46248;58.364;25.582;2022-12-07T05:57:24;99990.22;;;-3.70;92.76
59767;BME280;46248;58.364;25.582;2022-12-07T06:00:46;99972.31;;;-3.73;92.63
59767;BME280;46248;58.364;25.582;2022-12-07T06:04:10;99975.75;;;-3.71;92.69
59767;BME280;46248;58.364;25.582;2022-12-07T06:07:32;99976.59;;;-3.69;92.75
59767;BME280;46248;58.364;25.582;2022-12-07T06:10:55;99971.47;;;-3.67;92.57
59767;BME280;46248;58.364;25.582;2022-12-07T06:14:31;99965.53;;;-3.69;92.40
59767;BME280;46248;58.364;25.582;2022-12-07T06:17:53;99965.53;;;-3.69;92.74
59767;BME280;46248;58.364;25.582;2022-12-07T06:21:15;99963.81;;;-3.69;92.54
59767;BME280;46248;58.364;25.582;2022-12-07T06:24:38;99960.41;;;-3.71;92.68
59767;BME280;46248;58.364;25.582;2022-12-07T06:28:02;99960.41;;;-3.74;92.64
59767;BME280;46248;58.364;25.582;2022-12-07T06:31:24;99961.25;;;-3.76;92.74
59767;BME280;46248;58.364;25.582;2022-12-07T06:34:46;99956.16;;;-3.72;92.73
59767;BME280;46248;58.364;25.582;2022-12-07T06:38:09;99951.88;;;-3.76;92.91
59767;BME280;46248;58.364;25.582;2022-12-07T06:41:32;99957.84;;;-3.72;92.99
59767;BME280;46248;58.364;25.582;2022-12-07T06:44:56;99952.72;;;-3.75;92.97
59767;BME280;46248;58.364;25.582;2022-12-07T06:48:20;99958.72;;;-3.75;93.04
59767;BME280;46248;58.364;25.582;2022-12-07T06:51:46;99962.13;;;-3.74;93.20
59767;BME280;46248;58.364;25.582;2022-12-07T06:55:10;99968.06;;;-3.74;93.15
59767;BME280;46248;58.364;25.582;2022-12-07T06:58:33;99949.31;;;-3.82;93.27
59767;BME280;46248;58.364;25.582;2022-12-07T07:01:56;99948.50;;;-3.81;93.06
59767;BME280;46248;58.364;25.582;2022-12-07T07:05:18;99957.81;;;-3.75;93.03
59767;BME280;46248;58.364;25.582;2022-12-07T07:08:42;99954.44;;;-3.79;92.87
59767;BME280;46248;58.364;25.582;2022-12-07T07:12:04;99943.38;;;-3.81;92.93
59767;BME280;46248;58.364;25.582;2022-12-07T07:15:26;99947.63;;;-3.77;92.85
59767;BME280;46248;58.364;25.582;2022-12-07T07:18:49;99942.50;;;-3.83;92.91
59767;BME280;46248;58.364;25.582;2022-12-07T07:22:12;99951.88;;;-3.77;92.54
59767;BME280;46248;58.364;25.582;2022-12-07T07:25:33;99949.31;;;-3.79;92.28
59767;BME280;46248;58.364;25.582;2022-12-07T07:28:55;99948.47;;;-3.75;92.37
59767;BME280;46248;58.364;25.582;2022-12-07T07:32:17;99933.13;;;-3.81;92.01
59767;BME280;46248;58.364;25.582;2022-12-07T07:35:41;99941.63;;;-3.76;91.93
59767;BME280;46248;58.364;25.582;2022-12-07T07:39:03;99939.09;;;-3.74;91.76
59767;BME280;46248;58.364;25.582;2022-12-07T07:42:25;99934.81;;;-3.78;91.96
59767;BME280;46248;58.364;25.582;2022-12-07T07:45:48;99931.41;;;-3.77;92.36
59767;BME280;46248;58.364;25.582;2022-12-07T07:49:10;99928.00;;;-3.79;92.53
59767;BME280;46248;58.364;25.582;2022-12-07T07:52:37;99932.25;;;-3.71;92.31
59767;BME280;46248;58.364;25.582;2022-12-07T07:55:58;99933.09;;;-3.70;92.38
59767;BME280;46248;58.364;25.582;2022-12-07T07:59:20;99928.00;;;-3.69;92.59
59767;BME280;46248;58.364;25.582;2022-12-07T08:02:44;99923.72;;;-3.65;92.06
59767;BME280;46248;58.364;25.582;2022-12-07T08:06:07;99928.78;;;-3.57;92.46
59767;BME280;46248;58.364;25.582;2022-12-07T08:09:30;99903.25;;;-3.65;91.83
59767;BME280;46248;58.364;25.582;2022-12-07T08:12:52;99929.66;;;-3.51;91.76
59767;BME280;46248;58.364;25.582;2022-12-07T08:16:33;99916.00;;;-3.53;91.15
59767;BME280;46248;58.364;25.582;2022-12-07T08:19:55;99901.50;;;-3.57;91.13
59767;BME280;46248;58.364;25.582;2022-12-07T08:23:17;99913.41;;;-3.50;91.13
59767;BME280;46248;58.364;25.582;2022-12-07T08:26:46;99894.69;;;-3.59;90.67
59767;BME280;46248;58.364;25.582;2022-12-07T08:30:09;99898.09;;;-3.56;91.01
59767;BME280;46248;58.364;25.582;2022-12-07T08:33:32;99909.13;;;-3.46;90.97
59767;BME280;46248;58.364;25.582;2022-12-07T08:36:54;99896.38;;;-3.51;90.77
59767;BME280;46248;58.364;25.582;2022-12-07T08:40:16;99902.31;;;-3.44;90.47
59767;BME280;46248;58.364;25.582;2022-12-07T08:43:41;99892.94;;;-3.50;90.26
59767;BME280;46248;58.364;25.582;2022-12-07T08:47:05;99899.75;;;-3.47;90.61
59767;BME280;46248;58.364;25.582;2022-12-07T08:50:28;99888.66;;;-3.49;90.66
59767;BME280;46248;58.364;25.582;2022-12-07T08:53:52;99887.81;;;-3.43;90.34
59767;BME280;46248;58.364;25.582;2022-12-07T08:57:13;99887.78;;;-3.42;90.44
59767;BME280;46248;58.364;25.582;2022-12-07T09:00:37;99890.31;;;-3.39;90.42
59767;BME280;46248;58.364;25.582;2022-12-07T09:03:59;99874.16;;;-3.46;90.07
59767;BME280;46248;58.364;25.582;2022-12-07T09:07:21;99877.53;;;-3.36;90.44
59767;BME280;46248;58.364;25.582;2022-12-07T09:10:43;99869.84;;;-3.36;90.24
59767;BME280;46248;58.364;25.582;2022-12-07T09:14:05;99857.91;;;-3.38;90.06
59767;BME280;46248;58.364;25.582;2022-12-07T09:17:32;99863.84;;;-3.29;90.04
59767;BME280;46248;58.364;25.582;2022-12-07T09:20:54;99857.00;;;-3.27;89.61
59767;BME280;46248;58.364;25.582;2022-12-07T09:24:18;99840.78;;;-3.29;89.09
59767;BME280;46248;58.364;25.582;2022-12-07T09:27:40;99846.78;;;-3.27;89.09
59767;BME280;46248;58.364;25.582;2022-12-07T09:31:03;99842.47;;;-3.23;89.39
59767;BME280;46248;58.364;25.582;2022-12-07T09:34:46;99851.81;;;-3.14;88.84
59767;BME280;46248;58.364;25.582;2022-12-07T09:38:08;99838.16;;;-3.21;88.65
59767;BME280;46248;58.364;25.582;2022-12-07T09:41:30;99845.84;;;-3.18;88.93
59767;BME280;46248;58.364;25.582;2022-12-07T09:44:52;99840.69;;;-3.13;89.21
59767;BME280;46248;58.364;25.582;2022-12-07T09:48:17;99833.84;;;-3.08;89.39
59767;BME280;46248;58.364;25.582;2022-12-07T09:51:42;99818.53;;;-3.16;89.15
59767;BME280;46248;58.364;25.582;2022-12-07T09:55:11;99830.38;;;-3.03;88.81
59767;BME280;46248;58.364;25.582;2022-12-07T09:58:33;99817.56;;;-3.03;89.25
59767;BME280;46248;58.364;25.582;2022-12-07T10:01:55;99816.69;;;-2.95;88.01
59767;BME280;46248;58.364;25.582;2022-12-07T10:05:40;99814.09;;;-2.92;87.94
59767;BME280;46248;58.364;25.582;2022-12-07T10:19:38;99796.25;;;-3.06;86.89
59767;BME280;46248;58.364;25.582;2022-12-07T10:23:03;99793.72;;;-3.08;87.06
59767;BME280;46248;58.364;25.582;2022-12-07T10:29:53;99781.72;;;-3.06;87.15
59767;BME280;46248;58.364;25.582;2022-12-07T10:33:30;99769.81;;;-3.10;86.78
59767;BME280;46248;58.364;25.582;2022-12-07T10:37:13;99764.72;;;-3.08;86.76
59767;BME280;46248;58.364;25.582;2022-12-07T10:40:36;99764.69;;;-3.07;87.14
59767;BME280;46248;58.364;25.582;2022-12-07T10:44:20;99761.28;;;-3.10;87.03
59767;BME280;46248;58.364;25.582;2022-12-07T10:47:46;99748.50;;;-3.15;86.86
59767;BME280;46248;58.364;25.582;2022-12-07T10:51:12;99751.03;;;-3.07;87.38
59767;BME280;46248;58.364;25.582;2022-12-07T10:54:47;99750.13;;;-3.03;87.17
59767;BME280;46248;58.364;25.582;2022-12-07T10:58:35;99744.97;;;-3.00;88.04
59767;BME280;46248;58.364;25.582;2022-12-07T11:02:13;99735.63;;;-3.04;87.07
59767;BME280;46248;58.364;25.582;2022-12-07T11:05:45;99732.22;;;-3.05;86.23
59767;BME280;46248;58.364;25.582;2022-12-07T11:09:37;99726.28;;;-3.10;86.42
59767;BME280;46248;58.364;25.582;2022-12-07T11:13:36;99727.13;;;-3.09;86.48
59767;BME280;46248;58.364;25.582;2022-12-07T11:17:05;99728.03;;;-3.13;86.54
59767;BME280;46248;58.364;25.582;2022-12-07T11:20:39;99723.75;;;-3.11;86.86
59767;BME280;46248;58.364;25.582;2022-12-07T11:24:08;99720.38;;;-3.16;86.51
59767;BME280;46248;58.364;25.582;2022-12-07T11:27:37;99705.06;;;-3.23;85.94
59767;BME280;46248;58.364;25.582;2022-12-07T11:31:12;99707.63;;;-3.23;86.58
59767;BME280;46248;58.364;25.582;2022-12-07T11:34:55;99688.97;;;-3.37;86.68
59767;BME280;46248;58.364;25.582;2022-12-07T11:38:23;99683.00;;;-3.37;86.81
59767;BME280;46248;58.364;25.582;2022-12-07T11:41:54;99702.56;;;-3.32;86.76
59767;BME280;46248;58.364;25.582;2022-12-07T11:45:21;99675.38;;;-3.43;87.02
59767;BME280;46248;58.364;25.582;2022-12-07T11:48:52;99697.47;;;-3.32;87.42
59767;BME280;46248;58.364;25.582;2022-12-07T11:52:22;99678.75;;;-3.38;86.95
59767;BME280;46248;58.364;25.582;2022-12-07T11:55:50;99691.53;;;-3.35;87.33
59767;BME280;46248;58.364;25.582;2022-12-07T11:59:19;99691.50;;;-3.34;87.47
59767;BME280;46248;58.364;25.582;2022-12-07T12:02:49;99677.88;;;-3.37;86.96
59767;BME280;46248;58.364;25.582;2022-12-07T12:06:14;99666.91;;;-3.53;86.34
59767;BME280;46248;58.364;25.582;2022-12-07T12:09:44;99668.63;;;-3.55;86.85
59767;BME280;46248;58.364;25.582;2022-12-07T12:17:47;99666.16;;;-3.63;87.34
59767;BME280;46248;58.364;25.582;2022-12-07T12:21:16;99658.53;;;-3.75;87.71
59767;BME280;46248;58.364;25.582;2022-12-07T12:24:40;99667.91;;;-3.71;87.76
59767;BME280;46248;58.364;25.582;2022-12-07T12:28:03;99664.47;;;-3.70;87.66
59767;BME280;46248;58.364;25.582;2022-12-07T12:31:34;99653.41;;;-3.74;87.55
59767;BME280;46248;58.364;25.582;2022-12-07T12:35:28;99631.34;;;-3.87;87.39
59767;BME280;46248;58.364;25.582;2022-12-07T12:39:08;99634.75;;;-3.88;87.37
59767;BME280;46248;58.364;25.582;2022-12-07T12:42:44;99647.47;;;-3.79;87.54
59767;BME280;46248;58.364;25.582;2022-12-07T12:50:18;99627.06;;;-3.83;88.24
59767;BME280;46248;58.364;25.582;2022-12-07T12:53:41;99624.53;;;-3.89;87.74
59767;BME280;46248;58.364;25.582;2022-12-07T12:57:11;99629.69;;;-3.93;88.09
59767;BME280;46248;58.364;25.582;2022-12-07T13:00:35;99617.75;;;-3.92;88.08
59767;BME280;46248;58.364;25.582;2022-12-07T13:03:57;99617.75;;;-3.92;87.58
59767;BME280;46248;58.364;25.582;2022-12-07T13:07:55;99618.66;;;-4.01;87.42
59767;BME280;46248;58.364;25.582;2022-12-07T13:11:20;99614.44;;;-4.05;87.48
59767;BME280;46248;58.364;25.582;2022-12-07T13:14:57;99609.38;;;-4.14;88.06
59767;BME280;46248;58.364;25.582;2022-12-07T13:18:25;99610.22;;;-4.15;88.28
59767;BME280;46248;58.364;25.582;2022-12-07T13:21:57;99611.91;;;-4.16;88.51
59767;BME280;46248;58.364;25.582;2022-12-07T13:25:30;99612.75;;;-4.15;88.98
59767;BME280;46248;58.364;25.582;2022-12-07T13:29:06;99607.66;;;-4.13;89.47
59767;BME280;46248;58.364;25.582;2022-12-07T13:32:30;99604.22;;;-4.09;89.58
59767;BME280;46248;58.364;25.582;2022-12-07T13:35:53;99601.66;;;-4.09;89.62
59767;BME280;46248;58.364;25.582;2022-12-07T13:39:21;99594.84;;;-4.07;89.85
59767;BME280;46248;58.364;25.582;2022-12-07T13:42:44;99595.69;;;-4.08;89.62
59767;BME280;46248;58.364;25.582;2022-12-07T13:46:07;99585.47;;;-4.08;89.63
59767;BME280;46248;58.364;25.582;2022-12-07T13:49:47;99588.84;;;-4.06;90.01
59767;BME280;46248;58.364;25.582;2022-12-07T13:53:13;99587.16;;;-4.07;89.64
59767;BME280;46248;58.364;25.582;2022-12-07T13:56:36;99570.16;;;-4.15;89.58
59767;BME280;46248;58.364;25.582;2022-12-07T14:00:00;99570.13;;;-4.11;91.12
59767;BME280;46248;58.364;25.582;2022-12-07T14:03:29;99572.69;;;-4.08;90.07
59767;BME280;46248;58.364;25.582;2022-12-07T14:06:53;99571.84;;;-4.12;89.97
59767;BME280;46248;58.364;25.582;2022-12-07T14:10:26;99565.94;;;-4.19;89.89
59767;BME280;46248;58.364;25.582;2022-12-07T14:13:56;99571.06;;;-4.20;89.85
59767;BME280;46248;58.364;25.582;2022-12-07T14:17:21;99553.16;;;-4.22;89.96
59767;BME280;46248;58.364;25.582;2022-12-07T14:20:44;99556.59;;;-4.24;89.80
59767;BME280;46248;58.364;25.582;2022-12-07T14:24:16;99544.69;;;-4.27;90.21
59767;BME280;46248;58.364;25.582;2022-12-07T14:27:39;99544.69;;;-4.27;90.33
59767;BME280;46248;58.364;25.582;2022-12-07T14:31:10;99536.19;;;-4.29;89.96
59767;BME280;46248;58.364;25.582;2022-12-07T14:34:53;99531.97;;;-4.34;89.61
59767;BME280;46248;58.364;25.582;2022-12-07T14:38:15;99522.63;;;-4.39;90.34
59767;BME280;46248;58.364;25.582;2022-12-07T14:41:40;99524.28;;;-4.36;89.77
59767;BME280;46248;58.364;25.582;2022-12-07T14:45:17;99528.59;;;-4.40;89.91
59767;BME280;46248;58.364;25.582;2022-12-07T14:48:39;99526.03;;;-4.40;90.07
59767;BME280;46248;58.364;25.582;2022-12-07T14:52:23;99519.25;;;-4.44;90.46
59767;BME280;46248;58.364;25.582;2022-12-07T14:56:06;99519.25;;;-4.45;90.54
59767;BME280;46248;58.364;25.582;2022-12-07T14:59:30;99509.88;;;-4.46;90.74
59767;BME280;46248;58.364;25.582;2022-12-07T15:02:52;99518.41;;;-4.44;90.16
59767;BME280;46248;58.364;25.582;2022-12-07T15:06:17;99503.09;;;-4.49;90.26
59767;BME280;46248;58.364;25.582;2022-12-07T15:09:38;99514.13;;;-4.42;90.34
59767;BME280;46248;58.364;25.582;2022-12-07T15:13:02;99504.78;;;-4.45;90.54
59767;BME280;46248;58.364;25.582;2022-12-07T15:16:40;99499.69;;;-4.49;90.69
59767;BME280;46248;58.364;25.582;2022-12-07T15:20:22;99487.81;;;-4.53;90.44
59767;BME280;46248;58.364;25.582;2022-12-07T15:23:46;99487.75;;;-4.46;90.71
59767;BME280;46248;58.364;25.582;2022-12-07T15:27:08;99487.75;;;-4.47;90.48
59767;BME280;46248;58.364;25.582;2022-12-07T15:30:30;99480.13;;;-4.50;90.94
59767;BME280;46248;58.364;25.582;2022-12-07T15:33:54;99468.25;;;-4.56;91.00
59767;BME280;46248;58.364;25.582;2022-12-07T15:37:16;99479.25;;;-4.51;91.01
59767;BME280;46248;58.364;25.582;2022-12-07T15:40:37;99469.91;;;-4.50;90.86
59767;BME280;46248;58.364;25.582;2022-12-07T15:43:59;99469.91;;;-4.50;90.76
59767;BME280;46248;58.364;25.582;2022-12-07T15:47:40;99463.94;;;-4.52;90.80
59767;BME280;46248;58.364;25.582;2022-12-07T15:51:24;99458.00;;;-4.56;90.56
59767;BME280;46248;58.364;25.582;2022-12-07T15:54:46;99461.38;;;-4.54;90.63
59767;BME280;46248;58.364;25.582;2022-12-07T15:58:11;99457.16;;;-4.53;90.61
59767;BME280;46248;58.364;25.582;2022-12-07T16:01:33;99451.19;;;-4.55;90.80
59767;BME280;46248;58.364;25.582;2022-12-07T16:04:56;99443.53;;;-4.57;90.29
59767;BME280;46248;58.364;25.582;2022-12-07T16:08:20;99439.25;;;-4.55;90.23
59767;BME280;46248;58.364;25.582;2022-12-07T16:11:42;99436.75;;;-4.59;89.93
59767;BME280;46248;58.364;25.582;2022-12-07T16:15:06;99439.34;;;-4.67;89.88
59767;BME280;46248;58.364;25.582;2022-12-07T16:18:28;99435.97;;;-4.68;90.42
59767;BME280;46248;58.364;25.582;2022-12-07T16:21:50;99435.94;;;-4.66;90.55
59767;BME280;46248;58.364;25.582;2022-12-07T16:25:14;99415.59;;;-4.77;90.26
59767;BME280;46248;58.364;25.582;2022-12-07T16:28:36;99420.66;;;-4.71;90.27
59767;BME280;46248;58.364;25.582;2022-12-07T16:31:59;99424.94;;;-4.74;90.38
59767;BME280;46248;58.364;25.582;2022-12-07T16:35:21;99424.06;;;-4.72;90.62
59767;BME280;46248;58.364;25.582;2022-12-07T16:38:43;99425.72;;;-4.69;90.36
59767;BME280;46248;58.364;25.582;2022-12-07T16:42:13;99402.78;;;-4.75;90.47
59767;BME280;46248;58.364;25.582;2022-12-07T16:45:36;99412.13;;;-4.70;90.55
59767;BME280;46248;58.364;25.582;2022-12-07T16:48:59;99408.72;;;-4.69;90.78
59767;BME280;46248;58.364;25.582;2022-12-07T16:52:21;99400.22;;;-4.71;90.38
59767;BME280;46248;58.364;25.582;2022-12-07T16:55:44;99399.38;;;-4.71;90.18
59767;BME280;46248;58.364;25.582;2022-12-07T16:59:08;99401.06;;;-4.70;90.39
59767;BME280;46248;58.364;25.582;2022-12-07T17:02:30;99394.28;;;-4.71;90.72
59767;BME280;46248;58.364;25.582;2022-12-07T17:05:52;99395.13;;;-4.71;90.50
59767;BME280;46248;58.364;25.582;2022-12-07T17:09:14;99399.38;;;-4.71;90.63
59767;BME280;46248;58.364;25.582;2022-12-07T17:12:41;99392.56;;;-4.72;90.54
59767;BME280;46248;58.364;25.582;2022-12-07T17:16:06;99388.34;;;-4.75;90.42
59767;BME280;46248;58.364;25.582;2022-12-07T17:19:27;99384.91;;;-4.71;90.26
59767;BME280;46248;58.364;25.582;2022-12-07T17:22:50;99383.22;;;-4.72;90.58
59767;BME280;46248;58.364;25.582;2022-12-07T17:26:14;99374.69;;;-4.72;90.53
59767;BME280;46248;58.364;25.582;2022-12-07T17:29:36;99367.03;;;-4.75;90.47
59767;BME280;46248;58.364;25.582;2022-12-07T17:33:00;99360.25;;;-4.76;90.55
59767;BME280;46248;58.364;25.582;2022-12-07T17:36:24;99361.13;;;-4.82;90.47
59767;BME280;46248;58.364;25.582;2022-12-07T17:39:46;99356.91;;;-4.83;91.01
59767;BME280;46248;58.364;25.582;2022-12-07T17:43:08;99349.19;;;-4.78;91.18
59767;BME280;46248;58.364;25.582;2022-12-07T17:46:29;99346.63;;;-4.78;90.84
59767;BME280;46248;58.364;25.582;2022-12-07T17:49:53;99345.81;;;-4.80;91.46
59767;BME280;46248;58.364;25.582;2022-12-07T17:53:15;99345.81;;;-4.82;91.05
59767;BME280;46248;58.364;25.582;2022-12-07T17:56:36;99339.03;;;-4.83;91.46
59767;BME280;46248;58.364;25.582;2022-12-07T17:59:58;99345.81;;;-4.82;91.71
59767;BME280;46248;58.364;25.582;2022-12-07T18:03:20;99333.09;;;-4.84;91.49
59767;BME280;46248;58.364;25.582;2022-12-07T18:06:44;99326.28;;;-4.88;91.39
59767;BME280;46248;58.364;25.582;2022-12-07T18:10:11;99322.06;;;-4.89;91.13
59767;BME280;46248;58.364;25.582;2022-12-07T18:13:34;99322.06;;;-4.89;91.34
59767;BME280;46248;58.364;25.582;2022-12-07T18:16:58;99316.09;;;-4.91;91.40